sensor_id;sensor_type;location;lat;lon;timestamp;P1;durP1;ratioP1;P2;durP2;ratioP2
9280;SDS011;4679;47.966;7.958;2022-07-29T06:33:34;2.43;;;2.23;;
9280;SDS011;4679;47.966;7.958;2022-07-29T06:35:36;4.37;;;2.13;;
9280;SDS011;4679;47.966;7.958;2022-07-29T06:37:39;3.07;;;2.13;;
9280;SDS011;4679;47.966;7.958;2022-07-29T06:39:40;2.40;;;2.20;;
9280;SDS011;4679;47.966;7.958;2022-07-29T06:41:45;2.27;;;2.17;;
9280;SDS011;4679;47.966;7.958;2022-07-29T06:43:48;2.77;;;2.50;;
9280;SDS011;4679;47.966;7.958;2022-07-29T06:45:51;2.57;;;2.37;;
9280;SDS011;4679;47.966;7.958;2022-07-29T06:47:53;2.10;;;2.00;;
9280;SDS011;4679;47.966;7.958;2022-07-29T06:49:56;3.20;;;3.00;;
9280;SDS011;4679;47.966;7.958;2022-07-29T06:51:58;2.87;;;2.60;;
9280;SDS011;4679;47.966;7.958;2022-07-29T06:54:00;3.07;;;2.40;;
9280;SDS011;4679;47.966;7.958;2022-07-29T06:56:02;3.77;;;2.33;;
9280;SDS011;4679;47.966;7.958;2022-07-29T06:58:05;2.23;;;2.13;;
9280;SDS011;4679;47.966;7.958;2022-07-29T07:00:08;2.10;;;2.00;;
9280;SDS011;4679;47.966;7.958;2022-07-29T07:02:10;4.00;;;2.30;;
9280;SDS011;4679;47.966;7.958;2022-07-29T07:04:12;4.27;;;2.20;;
9280;SDS011;4679;47.966;7.958;2022-07-29T07:06:15;2.40;;;2.27;;
9280;SDS011;4679;47.966;7.958;2022-07-29T07:08:17;2.60;;;1.90;;
9280;SDS011;4679;47.966;7.958;2022-07-29T07:10:19;2.30;;;2.07;;
9280;SDS011;4679;47.966;7.958;2022-07-29T07:12:21;2.43;;;2.23;;
9280;SDS011;4679;47.966;7.958;2022-07-29T07:14:23;2.53;;;2.23;;
9280;SDS011;4679;47.966;7.958;2022-07-29T07:16:26;3.90;;;2.67;;
9280;SDS011;4679;47.966;7.958;2022-07-29T07:18:28;6.47;;;2.63;;
9280;SDS011;4679;47.966;7.958;2022-07-29T07:20:30;2.33;;;2.23;;
9280;SDS011;4679;47.966;7.958;2022-07-29T07:22:33;2.13;;;2.03;;
9280;SDS011;4679;47.966;7.958;2022-07-29T07:24:34;2.90;;;2.47;;
9280;SDS011;4679;47.966;7.958;2022-07-29T07:26:36;2.73;;;2.53;;
9280;SDS011;4679;47.966;7.958;2022-07-29T07:28:39;2.67;;;2.20;;
9280;SDS011;4679;47.966;7.958;2022-07-29T07:30:41;1.87;;;1.77;;
9280;SDS011;4679;47.966;7.958;2022-07-29T07:32:43;2.10;;;2.00;;
9280;SDS011;4679;47.966;7.958;2022-07-29T07:34:45;3.07;;;2.80;;
9280;SDS011;4679;47.966;7.958;2022-07-29T07:36:46;2.20;;;2.00;;
9280;SDS011;4679;47.966;7.958;2022-07-29T07:38:49;2.67;;;2.57;;
9280;SDS011;4679;47.966;7.958;2022-07-29T07:40:51;3.60;;;2.67;;
9280;SDS011;4679;47.966;7.958;2022-07-29T07:42:53;2.40;;;2.30;;
9280;SDS011;4679;47.966;7.958;2022-07-29T07:44:55;3.03;;;2.80;;
9280;SDS011;4679;47.966;7.958;2022-07-29T07:46:56;2.67;;;2.47;;
9280;SDS011;4679;47.966;7.958;2022-07-29T07:48:58;3.83;;;1.80;;
9280;SDS011;4679;47.966;7.958;2022-07-29T07:51:00;3.40;;;2.03;;
9280;SDS011;4679;47.966;7.958;2022-07-29T07:53:02;2.27;;;2.10;;
9280;SDS011;4679;47.966;7.958;2022-07-29T07:55:05;2.37;;;1.90;;
9280;SDS011;4679;47.966;7.958;2022-07-29T07:57:08;3.57;;;2.30;;
9280;SDS011;4679;47.966;7.958;2022-07-29T07:59:10;3.37;;;2.10;;
9280;SDS011;4679;47.966;7.958;2022-07-29T08:01:11;2.57;;;2.47;;
9280;SDS011;4679;47.966;7.958;2022-07-29T08:03:13;2.37;;;2.27;;
9280;SDS011;4679;47.966;7.958;2022-07-29T08:05:15;5.23;;;2.23;;
9280;SDS011;4679;47.966;7.958;2022-07-29T08:07:18;3.67;;;2.20;;
9280;SDS011;4679;47.966;7.958;2022-07-29T08:09:20;4.03;;;1.90;;
9280;SDS011;4679;47.966;7.958;2022-07-29T08:11:23;1.87;;;1.73;;
9280;SDS011;4679;47.966;7.958;2022-07-29T08:13:26;2.20;;;1.77;;
9280;SDS011;4679;47.966;7.958;2022-07-29T08:15:34;4.10;;;1.80;;
9280;SDS011;4679;47.966;7.958;2022-07-29T08:17:38;2.20;;;2.00;;
9280;SDS011;4679;47.966;7.958;2022-07-29T08:19:41;1.83;;;1.73;;
9280;SDS011;4679;47.966;7.958;2022-07-29T08:21:43;2.10;;;1.60;;
9280;SDS011;4679;47.966;7.958;2022-07-29T08:23:45;2.77;;;1.70;;
9280;SDS011;4679;47.966;7.958;2022-07-29T08:25:49;5.10;;;2.17;;
9280;SDS011;4679;47.966;7.958;2022-07-29T08:27:52;5.97;;;2.20;;
9280;SDS011;4679;47.966;7.958;2022-07-29T08:29:54;2.83;;;2.43;;
9280;SDS011;4679;47.966;7.958;2022-07-29T08:31:56;4.65;;;2.65;;
9280;SDS011;4679;47.966;7.958;2022-07-29T08:33:58;4.97;;;2.67;;
9280;SDS011;4679;47.966;7.958;2022-07-29T08:36:00;3.27;;;2.60;;
9280;SDS011;4679;47.966;7.958;2022-07-29T08:38:02;4.17;;;3.20;;
9280;SDS011;4679;47.966;7.958;2022-07-29T08:40:05;4.70;;;3.50;;
9280;SDS011;4679;47.966;7.958;2022-07-29T08:42:07;4.03;;;2.60;;
9280;SDS011;4679;47.966;7.958;2022-07-29T08:44:11;3.10;;;2.90;;
9280;SDS011;4679;47.966;7.958;2022-07-29T08:46:13;2.60;;;2.40;;
9280;SDS011;4679;47.966;7.958;2022-07-29T08:48:16;3.20;;;3.00;;
9280;SDS011;4679;47.966;7.958;2022-07-29T08:50:19;2.70;;;2.50;;
9280;SDS011;4679;47.966;7.958;2022-07-29T08:52:21;2.25;;;2.05;;
9280;SDS011;4679;47.966;7.958;2022-07-29T08:54:26;3.58;;;2.10;;
9280;SDS011;4679;47.966;7.958;2022-07-29T08:56:29;3.60;;;2.17;;
9280;SDS011;4679;47.966;7.958;2022-07-29T08:58:31;3.03;;;2.10;;
9280;SDS011;4679;47.966;7.958;2022-07-29T09:00:35;2.38;;;2.22;;
9280;SDS011;4679;47.966;7.958;2022-07-29T09:02:39;2.40;;;2.20;;
9280;SDS011;4679;47.966;7.958;2022-07-29T09:04:42;2.53;;;1.67;;
9280;SDS011;4679;47.966;7.958;2022-07-29T09:06:46;2.15;;;1.90;;
9280;SDS011;4679;47.966;7.958;2022-07-29T09:08:49;2.00;;;1.90;;
9280;SDS011;4679;47.966;7.958;2022-07-29T09:10:51;2.65;;;2.10;;
9280;SDS011;4679;47.966;7.958;2022-07-29T09:12:54;1.80;;;1.70;;
9280;SDS011;4679;47.966;7.958;2022-07-29T09:14:56;4.43;;;1.77;;
9280;SDS011;4679;47.966;7.958;2022-07-29T09:16:59;3.40;;;1.95;;
9280;SDS011;4679;47.966;7.958;2022-07-29T09:19:01;2.50;;;1.70;;
9280;SDS011;4679;47.966;7.958;2022-07-29T09:21:03;1.90;;;1.73;;
9280;SDS011;4679;47.966;7.958;2022-07-29T09:23:23;2.10;;;1.90;;
9280;SDS011;4679;47.966;7.958;2022-07-29T09:25:32;2.30;;;2.20;;
9280;SDS011;4679;47.966;7.958;2022-07-29T09:27:34;2.58;;;1.80;;
9280;SDS011;4679;47.966;7.958;2022-07-29T09:29:36;2.25;;;2.10;;
9280;SDS011;4679;47.966;7.958;2022-07-29T09:31:39;2.20;;;2.10;;
9280;SDS011;4679;47.966;7.958;2022-07-29T09:33:44;1.70;;;1.60;;
9280;SDS011;4679;47.966;7.958;2022-07-29T09:35:45;2.63;;;1.55;;
9280;SDS011;4679;47.966;7.958;2022-07-29T09:37:47;1.75;;;1.60;;
9280;SDS011;4679;47.966;7.958;2022-07-29T09:39:49;3.53;;;1.70;;
9280;SDS011;4679;47.966;7.958;2022-07-29T09:41:52;3.78;;;2.58;;
9280;SDS011;4679;47.966;7.958;2022-07-29T09:43:55;2.83;;;1.52;;
9280;SDS011;4679;47.966;7.958;2022-07-29T09:46:04;3.70;;;1.52;;
9280;SDS011;4679;47.966;7.958;2022-07-29T09:48:15;4.50;;;1.60;;
9280;SDS011;4679;47.966;7.958;2022-07-29T09:50:19;1.92;;;1.83;;
9280;SDS011;4679;47.966;7.958;2022-07-29T09:52:24;2.75;;;1.58;;
9280;SDS011;4679;47.966;7.958;2022-07-29T09:54:27;1.52;;;1.40;;
9280;SDS011;4679;47.966;7.958;2022-07-29T09:56:39;1.90;;;1.80;;
9280;SDS011;4679;47.966;7.958;2022-07-29T09:58:42;4.63;;;1.65;;
9280;SDS011;4679;47.966;7.958;2022-07-29T10:00:44;3.47;;;1.90;;
9280;SDS011;4679;47.966;7.958;2022-07-29T10:02:46;2.92;;;1.77;;
9280;SDS011;4679;47.966;7.958;2022-07-29T10:04:49;3.05;;;1.80;;
9280;SDS011;4679;47.966;7.958;2022-07-29T10:06:57;2.10;;;1.90;;
9280;SDS011;4679;47.966;7.958;2022-07-29T10:11:19;1.73;;;1.60;;
9280;SDS011;4679;47.966;7.958;2022-07-29T10:13:21;2.67;;;1.90;;
9280;SDS011;4679;47.966;7.958;2022-07-29T10:15:23;2.65;;;1.55;;
9280;SDS011;4679;47.966;7.958;2022-07-29T10:17:27;4.25;;;1.50;;
9280;SDS011;4679;47.966;7.958;2022-07-29T10:19:29;2.33;;;1.55;;
9280;SDS011;4679;47.966;7.958;2022-07-29T10:21:32;1.77;;;1.65;;
9280;SDS011;4679;47.966;7.958;2022-07-29T10:23:36;6.65;;;2.00;;
9280;SDS011;4679;47.966;7.958;2022-07-29T10:25:38;3.22;;;1.80;;
9280;SDS011;4679;47.966;7.958;2022-07-29T10:27:40;1.70;;;1.60;;
9280;SDS011;4679;47.966;7.958;2022-07-29T10:29:42;5.72;;;1.88;;
9280;SDS011;4679;47.966;7.958;2022-07-29T10:31:47;1.70;;;1.60;;
9280;SDS011;4679;47.966;7.958;2022-07-29T10:34:00;2.22;;;1.30;;
9280;SDS011;4679;47.966;7.958;2022-07-29T10:36:17;2.53;;;1.40;;
9280;SDS011;4679;47.966;7.958;2022-07-29T10:38:40;1.65;;;1.50;;
9280;SDS011;4679;47.966;7.958;2022-07-29T10:40:45;1.42;;;1.25;;
9280;SDS011;4679;47.966;7.958;2022-07-29T10:43:16;1.45;;;1.25;;
9280;SDS011;4679;47.966;7.958;2022-07-29T10:45:20;2.13;;;1.30;;
9280;SDS011;4679;47.966;7.958;2022-07-29T10:47:24;2.60;;;1.40;;
9280;SDS011;4679;47.966;7.958;2022-07-29T10:49:27;4.18;;;1.60;;
9280;SDS011;4679;47.966;7.958;2022-07-29T10:51:43;3.58;;;1.80;;
9280;SDS011;4679;47.966;7.958;2022-07-29T10:53:54;2.60;;;1.30;;
9280;SDS011;4679;47.966;7.958;2022-07-29T10:55:56;1.23;;;1.20;;
9280;SDS011;4679;47.966;7.958;2022-07-29T11:00:31;2.30;;;1.38;;
9280;SDS011;4679;47.966;7.958;2022-07-29T11:02:43;2.35;;;1.30;;
9280;SDS011;4679;47.966;7.958;2022-07-29T11:05:00;2.17;;;1.38;;
9280;SDS011;4679;47.966;7.958;2022-07-29T11:07:06;2.38;;;1.25;;
9280;SDS011;4679;47.966;7.958;2022-07-29T11:09:16;1.85;;;1.67;;
9280;SDS011;4679;47.966;7.958;2022-07-29T11:13:46;1.80;;;1.40;;
9280;SDS011;4679;47.966;7.958;2022-07-29T11:15:55;1.33;;;1.23;;
9280;SDS011;4679;47.966;7.958;2022-07-29T11:18:04;2.40;;;1.30;;
9280;SDS011;4679;47.966;7.958;2022-07-29T11:20:32;2.83;;;1.25;;
9280;SDS011;4679;47.966;7.958;2022-07-29T11:22:38;2.38;;;1.30;;
9280;SDS011;4679;47.966;7.958;2022-07-29T11:24:41;3.08;;;1.50;;
9280;SDS011;4679;47.966;7.958;2022-07-29T11:26:42;4.57;;;1.70;;
9280;SDS011;4679;47.966;7.958;2022-07-29T11:28:52;1.52;;;1.30;;
9280;SDS011;4679;47.966;7.958;2022-07-29T11:30:58;2.20;;;1.40;;
9280;SDS011;4679;47.966;7.958;2022-07-29T11:33:02;2.78;;;1.30;;
9280;SDS011;4679;47.966;7.958;2022-07-29T11:35:13;1.42;;;1.30;;
9280;SDS011;4679;47.966;7.958;2022-07-29T11:37:20;1.40;;;1.30;;
9280;SDS011;4679;47.966;7.958;2022-07-29T11:39:25;1.40;;;1.20;;
9280;SDS011;4679;47.966;7.958;2022-07-29T11:41:29;2.45;;;1.50;;
9280;SDS011;4679;47.966;7.958;2022-07-29T11:43:48;4.00;;;1.27;;
9280;SDS011;4679;47.966;7.958;2022-07-29T11:45:51;1.95;;;1.30;;
9280;SDS011;4679;47.966;7.958;2022-07-29T11:47:53;3.10;;;1.50;;
9280;SDS011;4679;47.966;7.958;2022-07-29T11:49:58;3.10;;;1.40;;
9280;SDS011;4679;47.966;7.958;2022-07-29T11:52:01;1.90;;;1.30;;
9280;SDS011;4679;47.966;7.958;2022-07-29T11:54:03;1.88;;;1.77;;
9280;SDS011;4679;47.966;7.958;2022-07-29T11:56:07;3.08;;;1.40;;
9280;SDS011;4679;47.966;7.958;2022-07-29T11:58:11;1.55;;;1.38;;
9280;SDS011;4679;47.966;7.958;2022-07-29T12:00:20;2.08;;;1.50;;
9280;SDS011;4679;47.966;7.958;2022-07-29T12:02:37;1.40;;;1.30;;
9280;SDS011;4679;47.966;7.958;2022-07-29T12:04:47;3.05;;;1.40;;
9280;SDS011;4679;47.966;7.958;2022-07-29T12:06:50;5.55;;;1.58;;
9280;SDS011;4679;47.966;7.958;2022-07-29T12:08:52;1.52;;;1.33;;
9280;SDS011;4679;47.966;7.958;2022-07-29T12:10:54;1.98;;;1.50;;
9280;SDS011;4679;47.966;7.958;2022-07-29T12:12:56;5.03;;;1.30;;
9280;SDS011;4679;47.966;7.958;2022-07-29T12:14:59;2.83;;;1.30;;
9280;SDS011;4679;47.966;7.958;2022-07-29T12:17:25;2.40;;;1.33;;
9280;SDS011;4679;47.966;7.958;2022-07-29T12:19:28;1.50;;;1.25;;
9280;SDS011;4679;47.966;7.958;2022-07-29T12:21:42;1.38;;;1.25;;
9280;SDS011;4679;47.966;7.958;2022-07-29T12:23:51;2.08;;;1.25;;
9280;SDS011;4679;47.966;7.958;2022-07-29T12:25:54;2.38;;;1.30;;
9280;SDS011;4679;47.966;7.958;2022-07-29T12:27:57;1.40;;;1.13;;
9280;SDS011;4679;47.966;7.958;2022-07-29T12:30:02;1.55;;;1.38;;
9280;SDS011;4679;47.966;7.958;2022-07-29T12:32:05;4.10;;;1.35;;
9280;SDS011;4679;47.966;7.958;2022-07-29T12:34:07;1.23;;;1.13;;
9280;SDS011;4679;47.966;7.958;2022-07-29T12:36:09;2.33;;;1.30;;
9280;SDS011;4679;47.966;7.958;2022-07-29T12:38:11;2.35;;;1.35;;
9280;SDS011;4679;47.966;7.958;2022-07-29T12:40:14;2.65;;;1.30;;
9280;SDS011;4679;47.966;7.958;2022-07-29T12:42:17;1.65;;;1.45;;
9280;SDS011;4679;47.966;7.958;2022-07-29T12:44:19;2.17;;;1.30;;
9280;SDS011;4679;47.966;7.958;2022-07-29T12:46:22;1.20;;;1.20;;
9280;SDS011;4679;47.966;7.958;2022-07-29T12:48:33;1.33;;;1.23;;
9280;SDS011;4679;47.966;7.958;2022-07-29T12:50:36;2.42;;;1.60;;
9280;SDS011;4679;47.966;7.958;2022-07-29T12:52:52;1.50;;;1.30;;
9280;SDS011;4679;47.966;7.958;2022-07-29T12:54:54;1.23;;;1.20;;
9280;SDS011;4679;47.966;7.958;2022-07-29T12:56:58;4.30;;;1.15;;
9280;SDS011;4679;47.966;7.958;2022-07-29T12:59:05;1.40;;;1.30;;
9280;SDS011;4679;47.966;7.958;2022-07-29T13:01:13;1.50;;;1.30;;
9280;SDS011;4679;47.966;7.958;2022-07-29T13:03:19;2.00;;;1.27;;
9280;SDS011;4679;47.966;7.958;2022-07-29T13:05:21;1.83;;;1.20;;
9280;SDS011;4679;47.966;7.958;2022-07-29T13:07:26;2.03;;;1.40;;
9280;SDS011;4679;47.966;7.958;2022-07-29T13:09:35;1.60;;;1.50;;
9280;SDS011;4679;47.966;7.958;2022-07-29T13:11:39;3.17;;;2.13;;
9280;SDS011;4679;47.966;7.958;2022-07-29T13:13:49;2.47;;;1.30;;
9280;SDS011;4679;47.966;7.958;2022-07-29T13:16:05;2.58;;;1.13;;
9280;SDS011;4679;47.966;7.958;2022-07-29T13:20:30;3.03;;;1.33;;
9280;SDS011;4679;47.966;7.958;2022-07-29T13:22:32;1.98;;;1.20;;
9280;SDS011;4679;47.966;7.958;2022-07-29T13:24:34;1.23;;;1.13;;
9280;SDS011;4679;47.966;7.958;2022-07-29T13:26:47;1.40;;;1.30;;
9280;SDS011;4679;47.966;7.958;2022-07-29T13:28:48;2.35;;;1.30;;
9280;SDS011;4679;47.966;7.958;2022-07-29T13:30:50;2.35;;;1.30;;
9280;SDS011;4679;47.966;7.958;2022-07-29T13:32:52;1.40;;;1.00;;
9280;SDS011;4679;47.966;7.958;2022-07-29T13:34:56;1.33;;;1.23;;
9280;SDS011;4679;47.966;7.958;2022-07-29T13:37:00;2.03;;;1.60;;
9280;SDS011;4679;47.966;7.958;2022-07-29T13:39:02;2.60;;;1.10;;
9280;SDS011;4679;47.966;7.958;2022-07-29T13:41:04;1.60;;;0.90;;
9280;SDS011;4679;47.966;7.958;2022-07-29T13:43:08;2.58;;;1.20;;
9280;SDS011;4679;47.966;7.958;2022-07-29T13:45:10;3.85;;;1.10;;
9280;SDS011;4679;47.966;7.958;2022-07-29T13:47:12;1.33;;;1.15;;
9280;SDS011;4679;47.966;7.958;2022-07-29T13:49:14;2.05;;;1.23;;
9280;SDS011;4679;47.966;7.958;2022-07-29T13:51:17;2.70;;;1.10;;
9280;SDS011;4679;47.966;7.958;2022-07-29T13:53:19;2.80;;;1.40;;
9280;SDS011;4679;47.966;7.958;2022-07-29T13:55:20;1.88;;;1.08;;
9280;SDS011;4679;47.966;7.958;2022-07-29T13:57:22;2.13;;;1.10;;
9280;SDS011;4679;47.966;7.958;2022-07-29T13:59:24;2.00;;;1.08;;
9280;SDS011;4679;47.966;7.958;2022-07-29T14:01:25;1.95;;;0.90;;
9280;SDS011;4679;47.966;7.958;2022-07-29T14:03:27;1.35;;;1.10;;
9280;SDS011;4679;47.966;7.958;2022-07-29T14:05:29;3.33;;;1.00;;
9280;SDS011;4679;47.966;7.958;2022-07-29T14:07:32;0.98;;;0.98;;
9280;SDS011;4679;47.966;7.958;2022-07-29T14:09:34;2.53;;;1.13;;
9280;SDS011;4679;47.966;7.958;2022-07-29T14:11:35;2.38;;;0.82;;
9280;SDS011;4679;47.966;7.958;2022-07-29T14:13:38;1.70;;;1.00;;
9280;SDS011;4679;47.966;7.958;2022-07-29T14:15:40;4.22;;;1.10;;
9280;SDS011;4679;47.966;7.958;2022-07-29T14:17:41;2.45;;;1.10;;
9280;SDS011;4679;47.966;7.958;2022-07-29T14:19:43;0.80;;;0.80;;
9280;SDS011;4679;47.966;7.958;2022-07-29T14:21:45;1.35;;;1.10;;
9280;SDS011;4679;47.966;7.958;2022-07-29T14:23:48;3.40;;;1.02;;
9280;SDS011;4679;47.966;7.958;2022-07-29T14:25:50;1.77;;;0.90;;
9280;SDS011;4679;47.966;7.958;2022-07-29T14:27:52;1.77;;;1.10;;
9280;SDS011;4679;47.966;7.958;2022-07-29T14:29:54;0.90;;;0.90;;
9280;SDS011;4679;47.966;7.958;2022-07-29T14:31:56;2.05;;;1.05;;
9280;SDS011;4679;47.966;7.958;2022-07-29T14:33:58;1.15;;;1.10;;
9280;SDS011;4679;47.966;7.958;2022-07-29T14:36:00;1.45;;;1.33;;
9280;SDS011;4679;47.966;7.958;2022-07-29T14:38:02;1.48;;;1.00;;
9280;SDS011;4679;47.966;7.958;2022-07-29T14:40:06;2.78;;;1.20;;
9280;SDS011;4679;47.966;7.958;2022-07-29T14:42:09;2.08;;;1.10;;
9280;SDS011;4679;47.966;7.958;2022-07-29T14:44:11;3.65;;;1.10;;
9280;SDS011;4679;47.966;7.958;2022-07-29T14:46:13;1.85;;;1.00;;
9280;SDS011;4679;47.966;7.958;2022-07-29T14:48:14;1.83;;;1.02;;
9280;SDS011;4679;47.966;7.958;2022-07-29T14:50:16;2.20;;;1.05;;
9280;SDS011;4679;47.966;7.958;2022-07-29T14:52:19;1.95;;;0.90;;
9280;SDS011;4679;47.966;7.958;2022-07-29T14:54:21;1.00;;;0.90;;
9280;SDS011;4679;47.966;7.958;2022-07-29T14:56:24;2.70;;;1.10;;
9280;SDS011;4679;47.966;7.958;2022-07-29T14:58:27;3.35;;;0.90;;
9280;SDS011;4679;47.966;7.958;2022-07-29T15:00:28;1.40;;;0.90;;
9280;SDS011;4679;47.966;7.958;2022-07-29T15:02:32;3.60;;;1.02;;
9280;SDS011;4679;47.966;7.958;2022-07-29T15:04:34;1.55;;;1.00;;
9280;SDS011;4679;47.966;7.958;2022-07-29T15:06:35;1.90;;;0.88;;
9280;SDS011;4679;47.966;7.958;2022-07-29T15:08:38;2.40;;;0.90;;
9280;SDS011;4679;47.966;7.958;2022-07-29T15:10:39;1.60;;;1.50;;
9280;SDS011;4679;47.966;7.958;2022-07-29T15:12:42;3.75;;;1.08;;
9280;SDS011;4679;47.966;7.958;2022-07-29T15:14:44;2.55;;;0.80;;
9280;SDS011;4679;47.966;7.958;2022-07-29T15:16:46;2.05;;;0.80;;
9280;SDS011;4679;47.966;7.958;2022-07-29T15:18:48;1.38;;;1.10;;
9280;SDS011;4679;47.966;7.958;2022-07-29T15:20:49;1.25;;;0.80;;
9280;SDS011;4679;47.966;7.958;2022-07-29T15:22:51;2.85;;;0.90;;
9280;SDS011;4679;47.966;7.958;2022-07-29T15:24:53;2.20;;;0.75;;
9280;SDS011;4679;47.966;7.958;2022-07-29T15:26:55;1.60;;;0.80;;
9280;SDS011;4679;47.966;7.958;2022-07-29T15:28:58;3.70;;;1.00;;
9280;SDS011;4679;47.966;7.958;2022-07-29T15:31:00;0.90;;;0.90;;
9280;SDS011;4679;47.966;7.958;2022-07-29T15:33:02;1.08;;;0.80;;
9280;SDS011;4679;47.966;7.958;2022-07-29T15:35:04;2.40;;;0.80;;
9280;SDS011;4679;47.966;7.958;2022-07-29T15:37:06;2.78;;;1.40;;
9280;SDS011;4679;47.966;7.958;2022-07-29T15:39:08;3.25;;;0.80;;
9280;SDS011;4679;47.966;7.958;2022-07-29T15:41:13;1.77;;;0.90;;
9280;SDS011;4679;47.966;7.958;2022-07-29T15:43:15;2.65;;;1.00;;
9280;SDS011;4679;47.966;7.958;2022-07-29T15:45:18;4.32;;;1.77;;
9280;SDS011;4679;47.966;7.958;2022-07-29T15:47:19;2.90;;;0.90;;
9280;SDS011;4679;47.966;7.958;2022-07-29T15:49:21;2.83;;;0.88;;
9280;SDS011;4679;47.966;7.958;2022-07-29T15:51:23;4.35;;;2.05;;
9280;SDS011;4679;47.966;7.958;2022-07-29T15:53:25;4.80;;;0.82;;
9280;SDS011;4679;47.966;7.958;2022-07-29T15:55:27;0.88;;;0.88;;
9280;SDS011;4679;47.966;7.958;2022-07-29T15:57:28;1.00;;;0.80;;
9280;SDS011;4679;47.966;7.958;2022-07-29T15:59:30;1.10;;;0.70;;
9280;SDS011;4679;47.966;7.958;2022-07-29T16:01:34;2.90;;;1.02;;
9280;SDS011;4679;47.966;7.958;2022-07-29T16:03:36;0.90;;;0.90;;
9280;SDS011;4679;47.966;7.958;2022-07-29T16:05:38;2.28;;;0.80;;
9280;SDS011;4679;47.966;7.958;2022-07-29T16:07:39;0.75;;;0.75;;
9280;SDS011;4679;47.966;7.958;2022-07-29T16:09:41;3.75;;;0.90;;
9280;SDS011;4679;47.966;7.958;2022-07-29T16:11:43;4.03;;;0.90;;
9280;SDS011;4679;47.966;7.958;2022-07-29T16:13:47;2.15;;;0.90;;
9280;SDS011;4679;47.966;7.958;2022-07-29T16:15:49;3.05;;;0.70;;
9280;SDS011;4679;47.966;7.958;2022-07-29T16:17:52;0.77;;;0.73;;
9280;SDS011;4679;47.966;7.958;2022-07-29T16:19:54;1.75;;;0.88;;
9280;SDS011;4679;47.966;7.958;2022-07-29T16:21:56;2.63;;;0.88;;
9280;SDS011;4679;47.966;7.958;2022-07-29T16:23:58;0.80;;;0.80;;
9280;SDS011;4679;47.966;7.958;2022-07-29T16:26:00;1.95;;;1.08;;
9280;SDS011;4679;47.966;7.958;2022-07-29T16:28:02;2.58;;;0.70;;
9280;SDS011;4679;47.966;7.958;2022-07-29T16:30:05;1.80;;;0.95;;
9280;SDS011;4679;47.966;7.958;2022-07-29T16:32:08;1.67;;;0.70;;
9280;SDS011;4679;47.966;7.958;2022-07-29T16:34:11;0.90;;;0.90;;
9280;SDS011;4679;47.966;7.958;2022-07-29T16:36:13;1.05;;;0.60;;
9280;SDS011;4679;47.966;7.958;2022-07-29T16:38:15;2.10;;;0.70;;
9280;SDS011;4679;47.966;7.958;2022-07-29T16:40:17;1.33;;;0.75;;
9280;SDS011;4679;47.966;7.958;2022-07-29T16:42:18;1.33;;;0.60;;
9280;SDS011;4679;47.966;7.958;2022-07-29T16:44:20;1.83;;;0.73;;
9280;SDS011;4679;47.966;7.958;2022-07-29T16:46:22;1.98;;;0.80;;
9280;SDS011;4679;47.966;7.958;2022-07-29T16:48:24;2.10;;;0.77;;
9280;SDS011;4679;47.966;7.958;2022-07-29T16:50:27;0.75;;;0.70;;
9280;SDS011;4679;47.966;7.958;2022-07-29T16:52:29;1.85;;;0.70;;
9280;SDS011;4679;47.966;7.958;2022-07-29T16:54:30;2.25;;;0.60;;
9280;SDS011;4679;47.966;7.958;2022-07-29T16:56:32;1.23;;;0.68;;
9280;SDS011;4679;47.966;7.958;2022-07-29T16:58:34;0.70;;;0.60;;
9280;SDS011;4679;47.966;7.958;2022-07-29T17:00:35;2.45;;;0.77;;
9280;SDS011;4679;47.966;7.958;2022-07-29T17:02:37;0.90;;;0.70;;
9280;SDS011;4679;47.966;7.958;2022-07-29T17:04:39;1.20;;;0.75;;
9280;SDS011;4679;47.966;7.958;2022-07-29T17:06:42;0.70;;;0.70;;
9280;SDS011;4679;47.966;7.958;2022-07-29T17:08:44;0.73;;;0.73;;
9280;SDS011;4679;47.966;7.958;2022-07-29T17:10:46;2.33;;;0.90;;
9280;SDS011;4679;47.966;7.958;2022-07-29T17:12:48;2.33;;;0.80;;
9280;SDS011;4679;47.966;7.958;2022-07-29T17:14:50;4.60;;;1.05;;
9280;SDS011;4679;47.966;7.958;2022-07-29T17:16:52;3.13;;;0.70;;
9280;SDS011;4679;47.966;7.958;2022-07-29T17:18:55;1.10;;;0.65;;
9280;SDS011;4679;47.966;7.958;2022-07-29T17:20:57;1.50;;;0.80;;
9280;SDS011;4679;47.966;7.958;2022-07-29T17:23:00;1.20;;;0.73;;
9280;SDS011;4679;47.966;7.958;2022-07-29T17:25:03;2.95;;;0.80;;
9280;SDS011;4679;47.966;7.958;2022-07-29T17:27:05;0.70;;;0.60;;
9280;SDS011;4679;47.966;7.958;2022-07-29T17:29:07;2.83;;;0.75;;
9280;SDS011;4679;47.966;7.958;2022-07-29T17:31:08;2.67;;;0.60;;
9280;SDS011;4679;47.966;7.958;2022-07-29T17:33:16;2.83;;;0.70;;
9280;SDS011;4679;47.966;7.958;2022-07-29T17:35:22;0.77;;;0.60;;
9280;SDS011;4679;47.966;7.958;2022-07-29T17:37:47;1.40;;;0.60;;
9280;SDS011;4679;47.966;7.958;2022-07-29T17:39:53;1.02;;;0.95;;
9280;SDS011;4679;47.966;7.958;2022-07-29T17:41:55;1.95;;;0.70;;
9280;SDS011;4679;47.966;7.958;2022-07-29T17:43:57;1.00;;;0.70;;
9280;SDS011;4679;47.966;7.958;2022-07-29T17:46:00;2.20;;;0.80;;
9280;SDS011;4679;47.966;7.958;2022-07-29T17:48:02;2.45;;;0.70;;
9280;SDS011;4679;47.966;7.958;2022-07-29T17:50:09;1.38;;;0.80;;
9280;SDS011;4679;47.966;7.958;2022-07-29T17:52:11;2.15;;;0.70;;
9280;SDS011;4679;47.966;7.958;2022-07-29T17:54:15;2.50;;;0.70;;
9280;SDS011;4679;47.966;7.958;2022-07-29T17:56:18;0.80;;;0.80;;
9280;SDS011;4679;47.966;7.958;2022-07-29T17:58:19;1.02;;;0.60;;
9280;SDS011;4679;47.966;7.958;2022-07-29T18:00:21;2.50;;;0.70;;
9280;SDS011;4679;47.966;7.958;2022-07-29T18:02:24;1.13;;;0.70;;
9280;SDS011;4679;47.966;7.958;2022-07-29T18:04:26;1.60;;;0.70;;
9280;SDS011;4679;47.966;7.958;2022-07-29T18:06:28;1.05;;;0.65;;
9280;SDS011;4679;47.966;7.958;2022-07-29T18:08:30;2.10;;;0.60;;
9280;SDS011;4679;47.966;7.958;2022-07-29T18:10:32;2.08;;;0.60;;
9280;SDS011;4679;47.966;7.958;2022-07-29T18:12:35;3.25;;;0.55;;
9280;SDS011;4679;47.966;7.958;2022-07-29T18:14:37;1.98;;;0.60;;
9280;SDS011;4679;47.966;7.958;2022-07-29T18:16:39;1.10;;;0.80;;
9280;SDS011;4679;47.966;7.958;2022-07-29T18:18:42;0.80;;;0.80;;
9280;SDS011;4679;47.966;7.958;2022-07-29T18:20:43;1.33;;;0.70;;
9280;SDS011;4679;47.966;7.958;2022-07-29T18:22:46;1.92;;;0.60;;
9280;SDS011;4679;47.966;7.958;2022-07-29T18:24:48;1.38;;;0.90;;
9280;SDS011;4679;47.966;7.958;2022-07-29T18:26:49;0.82;;;0.70;;
9280;SDS011;4679;47.966;7.958;2022-07-29T18:28:52;3.20;;;0.82;;
9280;SDS011;4679;47.966;7.958;2022-07-29T18:30:54;1.40;;;0.60;;
9280;SDS011;4679;47.966;7.958;2022-07-29T18:32:56;1.63;;;0.60;;
9280;SDS011;4679;47.966;7.958;2022-07-29T18:34:58;0.80;;;0.80;;
9280;SDS011;4679;47.966;7.958;2022-07-29T18:37:01;1.42;;;0.70;;
9280;SDS011;4679;47.966;7.958;2022-07-29T18:39:03;1.95;;;1.17;;
9280;SDS011;4679;47.966;7.958;2022-07-29T18:41:05;2.25;;;0.60;;
9280;SDS011;4679;47.966;7.958;2022-07-29T18:43:07;0.98;;;0.88;;
9280;SDS011;4679;47.966;7.958;2022-07-29T18:45:11;0.80;;;0.80;;
9280;SDS011;4679;47.966;7.958;2022-07-29T18:47:13;3.85;;;1.23;;
9280;SDS011;4679;47.966;7.958;2022-07-29T18:49:15;1.65;;;0.70;;
9280;SDS011;4679;47.966;7.958;2022-07-29T18:51:17;1.45;;;0.80;;
9280;SDS011;4679;47.966;7.958;2022-07-29T18:53:19;0.88;;;0.80;;
9280;SDS011;4679;47.966;7.958;2022-07-29T18:55:20;0.68;;;0.68;;
9280;SDS011;4679;47.966;7.958;2022-07-29T18:57:22;1.10;;;0.70;;
9280;SDS011;4679;47.966;7.958;2022-07-29T18:59:24;1.23;;;0.70;;
9280;SDS011;4679;47.966;7.958;2022-07-29T19:01:27;1.65;;;0.60;;
9280;SDS011;4679;47.966;7.958;2022-07-29T19:03:29;1.30;;;0.90;;
9280;SDS011;4679;47.966;7.958;2022-07-29T19:05:30;1.33;;;0.65;;
9280;SDS011;4679;47.966;7.958;2022-07-29T19:07:32;1.45;;;0.68;;
9280;SDS011;4679;47.966;7.958;2022-07-29T19:09:34;2.42;;;0.70;;
9280;SDS011;4679;47.966;7.958;2022-07-29T19:11:37;0.60;;;0.60;;
9280;SDS011;4679;47.966;7.958;2022-07-29T19:13:39;0.65;;;0.65;;
9280;SDS011;4679;47.966;7.958;2022-07-29T19:15:41;1.50;;;0.60;;
9280;SDS011;4679;47.966;7.958;2022-07-29T19:17:44;3.70;;;0.80;;
9280;SDS011;4679;47.966;7.958;2022-07-29T19:19:47;0.70;;;0.70;;
9280;SDS011;4679;47.966;7.958;2022-07-29T19:21:52;2.65;;;0.70;;
9280;SDS011;4679;47.966;7.958;2022-07-29T19:23:54;2.83;;;0.77;;
9280;SDS011;4679;47.966;7.958;2022-07-29T19:25:56;1.63;;;0.90;;
9280;SDS011;4679;47.966;7.958;2022-07-29T19:27:58;1.42;;;0.80;;
9280;SDS011;4679;47.966;7.958;2022-07-29T19:30:00;2.75;;;0.95;;